createdAt,value
2023-05-21T00:01:07.376Z,12.52
2023-05-21T00:03:36.217Z,13.27
2023-05-21T00:06:03.908Z,12.85
2023-05-21T00:08:31.152Z,11.18
2023-05-21T00:10:58.238Z,12.60
2023-05-21T00:13:25.063Z,10.15
2023-05-21T00:15:51.913Z,9.40
2023-05-21T00:18:18.874Z,10.40
2023-05-21T00:20:45.860Z,10.70
2023-05-21T00:23:12.856Z,12.55
2023-05-21T00:25:39.636Z,9.52
2023-05-21T00:28:06.611Z,9.40
2023-05-21T00:30:33.384Z,8.65
2023-05-21T00:33:02.621Z,14.00
2023-05-21T00:35:29.735Z,10.15
2023-05-21T00:37:57.313Z,10.32
2023-05-21T00:40:24.313Z,8.50
2023-05-21T00:42:51.094Z,12.95
2023-05-21T00:45:17.996Z,11.68
2023-05-21T00:47:45.956Z,11.77
2023-05-21T00:50:14.868Z,8.95
2023-05-21T00:52:43.201Z,11.20
2023-05-21T00:55:10.972Z,9.40
2023-05-21T00:57:39.235Z,9.55
2023-05-21T01:00:10.706Z,9.70
2023-05-21T01:02:38.203Z,10.70
2023-05-21T01:05:06.726Z,10.50
2023-05-21T01:07:35.758Z,9.63
2023-05-21T01:10:07.797Z,8.95
2023-05-21T01:12:36.496Z,13.35
2023-05-21T01:15:04.811Z,13.85
2023-05-21T01:17:32.115Z,12.65
2023-05-21T01:20:00.279Z,14.10
2023-05-21T01:22:32.354Z,11.57
2023-05-21T01:25:02.771Z,13.25
2023-05-21T01:27:29.719Z,15.10
2023-05-21T01:29:57.216Z,11.55
2023-05-21T01:32:24.025Z,9.85
2023-05-21T01:34:57.057Z,9.30
2023-05-21T01:37:36.619Z,11.23
2023-05-21T01:40:13.944Z,10.23
2023-05-21T01:42:44.256Z,11.65
2023-05-21T01:45:14.543Z,8.77
2023-05-21T01:47:45.075Z,11.77
2023-05-21T01:50:12.239Z,11.63
2023-05-21T01:52:39.066Z,13.43
2023-05-21T01:55:06.300Z,11.63
2023-05-21T01:57:33.082Z,10.45
2023-05-21T02:00:01.199Z,12.85
2023-05-21T02:02:28.293Z,10.98
2023-05-21T02:04:55.081Z,11.75
2023-05-21T02:07:22.654Z,11.40
2023-05-21T02:09:49.421Z,8.77
2023-05-21T02:12:16.243Z,9.77
2023-05-21T02:14:43.043Z,9.70
2023-05-21T02:17:10.348Z,10.05
2023-05-21T02:19:37.290Z,14.07
2023-05-21T02:22:04.155Z,16.35
2023-05-21T02:24:31.361Z,11.65
2023-05-21T02:26:58.618Z,11.68
2023-05-21T02:29:25.547Z,9.63
2023-05-21T02:31:52.279Z,10.52
2023-05-21T02:34:20.708Z,10.38
2023-05-21T02:36:52.383Z,12.50
2023-05-21T02:41:47.654Z,13.18
2023-05-21T02:44:14.426Z,10.75
2023-05-21T02:46:41.214Z,11.02
2023-05-21T02:49:07.970Z,9.13
2023-05-21T02:51:34.715Z,12.50
2023-05-21T02:54:01.464Z,11.77
2023-05-21T02:56:28.619Z,10.93
2023-05-21T02:58:55.356Z,8.25
2023-05-21T03:01:22.091Z,10.77
2023-05-21T03:03:48.980Z,11.63
2023-05-21T03:06:16.400Z,13.30
2023-05-21T03:08:43.199Z,10.60
2023-05-21T03:11:10.021Z,9.75
2023-05-21T03:13:36.820Z,11.43
2023-05-21T03:16:05.304Z,12.25
2023-05-21T03:18:32.083Z,9.13
2023-05-21T03:20:59.046Z,10.00
2023-05-21T03:23:26.920Z,12.60
2023-05-21T03:25:54.090Z,9.98
2023-05-21T03:28:20.995Z,10.00
2023-05-21T03:30:49.717Z,10.90
2023-05-21T03:33:16.615Z,10.60
2023-05-21T03:35:43.462Z,12.73
2023-05-21T03:38:10.276Z,8.88
2023-05-21T03:40:37.053Z,10.45
2023-05-21T03:43:03.812Z,14.15
2023-05-21T03:45:30.720Z,12.82
2023-05-21T03:47:57.609Z,11.80
2023-05-21T03:50:24.465Z,13.05
2023-05-21T03:52:51.242Z,12.35
2023-05-21T03:55:18.011Z,9.93
2023-05-21T03:57:44.742Z,11.82
2023-05-21T04:00:11.922Z,11.82
2023-05-21T04:02:38.820Z,12.65
2023-05-21T04:05:07.091Z,12.30
2023-05-21T04:07:33.944Z,12.95
2023-05-21T04:10:00.666Z,12.10
2023-05-21T04:12:27.440Z,11.30
2023-05-21T04:14:54.276Z,10.43
2023-05-21T04:17:21.704Z,11.48
2023-05-21T04:19:48.790Z,12.13
2023-05-21T04:22:15.928Z,12.63
2023-05-21T04:24:42.732Z,12.48
2023-05-21T04:27:10.055Z,15.50
2023-05-21T04:29:37.692Z,9.65
2023-05-21T04:32:05.597Z,10.25
2023-05-21T04:34:33.852Z,11.25
2023-05-21T04:37:02.202Z,9.82
2023-05-21T04:39:29.199Z,10.95
2023-05-21T04:41:56.643Z,11.95
2023-05-21T04:44:23.495Z,9.90
2023-05-21T04:46:50.683Z,15.02
2023-05-21T04:49:17.504Z,9.98
2023-05-21T04:51:44.207Z,10.85
2023-05-21T04:54:11.175Z,9.68
2023-05-21T04:56:38.035Z,11.60
2023-05-21T04:59:06.201Z,14.18
2023-05-21T05:01:35.040Z,10.90
2023-05-21T05:04:01.947Z,10.52
2023-05-21T05:06:28.798Z,9.82
2023-05-21T05:08:55.577Z,11.90
2023-05-21T05:11:22.501Z,12.43
2023-05-21T05:13:49.433Z,9.95
2023-05-21T05:16:18.444Z,11.52
2023-05-21T05:18:45.329Z,10.82
2023-05-21T05:21:12.206Z,10.60
2023-05-21T05:23:38.959Z,12.02
2023-05-21T05:26:06.046Z,9.40
2023-05-21T05:28:32.900Z,10.95
2023-05-21T05:30:59.652Z,10.93
2023-05-21T05:33:26.455Z,13.32
2023-05-21T05:35:53.200Z,10.27
2023-05-21T05:38:20.450Z,10.70
2023-05-21T05:40:47.212Z,9.63
2023-05-21T05:43:13.984Z,11.25
2023-05-21T05:45:40.899Z,10.77
2023-05-21T05:48:07.840Z,10.10
2023-05-21T05:50:34.654Z,10.82
2023-05-21T05:53:01.392Z,13.27
2023-05-21T05:55:28.250Z,13.02
2023-05-21T05:57:55.061Z,9.60
2023-05-21T06:00:22.295Z,13.20
2023-05-21T06:02:49.200Z,10.40
2023-05-21T06:05:16.487Z,12.43
2023-05-21T06:07:43.298Z,8.98
2023-05-21T06:10:10.799Z,13.57
2023-05-21T06:12:37.592Z,9.75
2023-05-21T06:15:05.630Z,11.98
2023-05-21T06:17:32.494Z,10.25
2023-05-21T06:19:59.499Z,9.82
2023-05-21T06:22:26.266Z,10.70
2023-05-21T06:24:55.985Z,10.20
2023-05-21T06:27:22.769Z,11.95
2023-05-21T06:29:49.530Z,10.82
2023-05-21T06:32:16.290Z,12.52
2023-05-21T06:34:43.100Z,9.82
2023-05-21T06:37:09.803Z,10.18
2023-05-21T06:39:36.571Z,10.90
2023-05-21T06:42:03.361Z,9.07
2023-05-21T06:44:30.155Z,12.23
2023-05-21T06:46:56.918Z,10.73
2023-05-21T06:49:23.735Z,11.68
2023-05-21T06:51:50.475Z,10.82
2023-05-21T06:54:17.237Z,11.02
2023-05-21T06:56:44.022Z,9.63
2023-05-21T06:59:10.947Z,13.63
2023-05-21T07:01:37.807Z,10.38
2023-05-21T07:04:04.787Z,9.77
2023-05-21T07:06:32.113Z,11.05
2023-05-21T07:08:58.867Z,12.70
2023-05-21T07:11:28.797Z,10.48
2023-05-21T07:14:00.359Z,10.48
2023-05-21T07:18:53.955Z,12.88
2023-05-21T07:21:20.858Z,13.52
2023-05-21T07:23:47.582Z,14.35
2023-05-21T07:26:14.373Z,12.52
2023-05-21T07:28:41.383Z,11.50
2023-05-21T07:31:08.476Z,11.00
2023-05-21T07:33:35.410Z,14.35
2023-05-21T07:36:02.234Z,11.68
2023-05-21T07:38:29.014Z,16.73
2023-05-21T07:40:56.834Z,14.23
2023-05-21T07:43:24.119Z,15.88
2023-05-21T07:45:51.267Z,10.32
2023-05-21T07:48:18.886Z,10.57
2023-05-21T07:50:48.018Z,11.25
2023-05-21T07:53:14.756Z,10.65
2023-05-21T07:55:47.747Z,9.60
2023-05-21T07:58:18.220Z,10.82
2023-05-21T08:00:47.283Z,10.80
2023-05-21T08:03:18.504Z,8.85
2023-05-21T08:05:49.288Z,11.27
2023-05-21T08:08:17.785Z,12.63
2023-05-21T08:10:44.845Z,10.93
2023-05-21T08:13:16.548Z,11.88
2023-05-21T08:15:43.729Z,9.63
2023-05-21T08:18:11.938Z,11.40
2023-05-21T08:20:38.879Z,9.95
2023-05-21T08:23:05.632Z,11.15
2023-05-21T08:25:32.417Z,10.10
2023-05-21T08:27:59.269Z,11.68
2023-05-21T08:30:26.285Z,11.80
2023-05-21T08:32:53.083Z,11.05
2023-05-21T08:35:19.919Z,11.13
2023-05-21T08:37:46.682Z,10.55
2023-05-21T08:40:13.669Z,9.63
2023-05-21T08:42:45.135Z,9.45
2023-05-21T08:47:44.024Z,13.02
2023-05-21T08:50:13.864Z,10.07
2023-05-21T08:52:41.344Z,10.60
2023-05-21T08:55:09.263Z,11.48
2023-05-21T08:57:36.727Z,12.15
2023-05-21T09:00:06.469Z,9.77
2023-05-21T09:02:34.763Z,11.05
2023-05-21T09:05:03.248Z,11.18
2023-05-21T09:07:34.282Z,13.45
2023-05-21T09:10:08.746Z,15.32
2023-05-21T09:12:35.927Z,12.68
2023-05-21T09:15:03.885Z,15.82
2023-05-21T09:17:30.967Z,11.35
2023-05-21T09:20:17.533Z,12.75
2023-05-21T09:22:45.594Z,9.88
2023-05-21T09:25:15.882Z,10.57
2023-05-21T09:27:43.009Z,9.77
2023-05-21T09:30:15.498Z,11.02
2023-05-21T09:32:43.116Z,10.57
2023-05-21T09:35:11.938Z,9.20
2023-05-21T09:37:39.456Z,13.30
2023-05-21T09:40:16.489Z,10.93
2023-05-21T09:42:54.190Z,11.88
2023-05-21T09:45:28.113Z,11.63
2023-05-21T09:47:56.390Z,12.77
2023-05-21T09:50:27.894Z,10.52
2023-05-21T09:52:55.675Z,10.15
2023-05-21T09:55:23.541Z,10.65
2023-05-21T09:57:51.434Z,9.90
2023-05-21T10:00:21.410Z,10.32
2023-05-21T10:02:49.764Z,10.18
2023-05-21T10:05:17.744Z,11.98
2023-05-21T10:07:51.533Z,12.80
2023-05-21T10:10:24.143Z,9.93
2023-05-21T10:13:12.579Z,11.50
2023-05-21T10:15:44.157Z,10.02
2023-05-21T10:18:13.041Z,11.70
2023-05-21T10:20:40.362Z,9.18
2023-05-21T10:23:07.650Z,9.73
2023-05-21T10:25:36.164Z,8.38
2023-05-21T10:28:03.492Z,10.43
2023-05-21T10:30:31.195Z,12.00
2023-05-21T10:32:59.696Z,12.75
2023-05-21T10:35:28.588Z,10.32
2023-05-21T10:37:59.038Z,10.25
2023-05-21T10:40:25.993Z,11.30
2023-05-21T10:43:18.965Z,13.43
2023-05-21T10:46:01.598Z,12.70
2023-05-21T10:48:43.441Z,8.75
2023-05-21T10:51:25.653Z,10.65
2023-05-21T10:54:20.435Z,12.80
2023-05-21T10:57:05.709Z,11.38
2023-05-21T10:59:57.938Z,10.52
2023-05-21T11:02:26.717Z,11.07
2023-05-21T11:05:00.650Z,10.32
2023-05-21T11:07:53.778Z,11.85
2023-05-21T11:10:40.882Z,12.23
2023-05-21T11:13:08.476Z,12.77
2023-05-21T11:16:01.471Z,12.15
2023-05-21T11:18:33.981Z,12.75
2023-05-21T11:21:18.621Z,12.30
2023-05-21T11:23:51.547Z,12.23
2023-05-21T11:26:24.213Z,11.93
2023-05-21T11:29:11.395Z,11.50
2023-05-21T11:31:38.730Z,11.57
2023-05-21T11:34:28.981Z,12.20
2023-05-21T11:37:23.179Z,12.80
2023-05-21T11:39:51.153Z,13.75
2023-05-21T11:42:38.909Z,10.18
2023-05-21T11:45:06.163Z,13.10
2023-05-21T11:47:33.105Z,13.43
2023-05-21T11:50:01.897Z,12.38
2023-05-21T11:52:33.196Z,12.60
2023-05-21T11:57:31.266Z,13.32
2023-05-21T12:02:33.059Z,12.40
2023-05-21T12:05:00.602Z,12.00
2023-05-21T12:07:29.770Z,11.60
2023-05-21T12:09:56.956Z,13.23
2023-05-21T12:12:29.385Z,14.10
2023-05-21T12:15:02.924Z,12.02
2023-05-21T12:17:31.712Z,11.80
2023-05-21T12:19:58.970Z,13.68
2023-05-21T12:22:27.857Z,17.83
2023-05-21T12:24:54.663Z,13.20
2023-05-21T12:27:22.230Z,13.82
2023-05-21T12:29:53.100Z,11.68
2023-05-21T12:32:21.303Z,16.77
2023-05-21T12:34:54.477Z,14.70
2023-05-21T12:37:22.319Z,14.07
2023-05-21T12:39:51.301Z,10.07
2023-05-21T12:42:26.863Z,13.07
2023-05-21T12:44:54.322Z,13.15
2023-05-21T12:47:25.029Z,21.40
2023-05-21T12:49:55.838Z,12.82
2023-05-21T12:52:23.117Z,10.98
2023-05-21T12:54:52.237Z,17.08
2023-05-21T12:57:21.212Z,17.30
2023-05-21T12:59:52.231Z,12.73
2023-05-21T13:02:38.326Z,12.88
2023-05-21T13:05:09.776Z,14.38
2023-05-21T13:07:38.576Z,15.65
2023-05-21T13:10:06.520Z,12.40
2023-05-21T13:12:34.507Z,14.77
2023-05-21T13:15:03.299Z,13.10
2023-05-21T13:17:30.391Z,12.68
2023-05-21T13:20:09.296Z,12.40
2023-05-21T13:22:39.147Z,11.77
2023-05-21T13:25:07.150Z,16.00
2023-05-21T13:27:33.966Z,15.32
2023-05-21T13:30:01.053Z,14.65
2023-05-21T13:32:27.919Z,13.50
2023-05-21T13:34:54.738Z,12.48
2023-05-21T13:37:21.531Z,15.70
2023-05-21T13:39:48.417Z,14.02
2023-05-21T13:42:15.906Z,13.05
2023-05-21T13:44:42.748Z,15.63
2023-05-21T13:47:10.591Z,14.32
2023-05-21T13:49:38.438Z,12.57
2023-05-21T13:52:06.067Z,13.65
2023-05-21T13:54:32.907Z,12.60
2023-05-21T13:57:00.081Z,16.65
2023-05-21T13:59:26.919Z,14.40
2023-05-21T14:01:53.822Z,14.27
2023-05-21T14:04:21.288Z,13.63
2023-05-21T14:06:48.321Z,10.52
2023-05-21T14:09:15.331Z,16.63
2023-05-21T14:11:42.194Z,14.27
2023-05-21T14:14:08.958Z,10.77
2023-05-21T14:16:36.427Z,12.25
2023-05-21T14:19:03.727Z,13.25
2023-05-21T14:21:31.665Z,12.35
2023-05-21T14:23:58.506Z,15.52
2023-05-21T14:26:26.695Z,13.02
2023-05-21T14:28:53.458Z,13.73
2023-05-21T14:31:21.592Z,12.77
2023-05-21T14:33:48.399Z,11.75
2023-05-21T14:36:15.950Z,14.55
2023-05-21T14:38:42.814Z,18.77
2023-05-21T14:41:09.914Z,16.80
2023-05-21T14:43:36.666Z,10.55
2023-05-21T14:46:03.734Z,12.15
2023-05-21T14:48:30.505Z,13.35
2023-05-21T14:50:57.244Z,14.98
2023-05-21T14:53:24.008Z,12.40
2023-05-21T14:55:50.804Z,13.18
2023-05-21T14:58:17.741Z,15.25
2023-05-21T15:00:44.605Z,13.50
2023-05-21T15:03:12.933Z,16.20
2023-05-21T15:05:39.925Z,12.15
2023-05-21T15:08:08.094Z,11.02
2023-05-21T15:10:34.927Z,9.15
2023-05-21T15:13:01.670Z,12.68
2023-05-21T15:15:28.524Z,15.60
2023-05-21T15:17:58.073Z,16.08
2023-05-21T15:20:25.114Z,11.48
2023-05-21T15:22:59.077Z,10.45
2023-05-21T15:25:35.856Z,11.38
2023-05-21T15:28:02.811Z,14.57
2023-05-21T15:30:29.569Z,16.98
2023-05-21T15:32:56.329Z,12.25
2023-05-21T15:35:23.242Z,9.63
2023-05-21T15:37:50.113Z,13.10
2023-05-21T15:40:16.910Z,13.98
2023-05-21T15:42:43.694Z,15.57
2023-05-21T15:45:10.870Z,12.93
2023-05-21T15:47:42.730Z,10.73
2023-05-21T15:50:10.752Z,13.23
2023-05-21T15:52:37.556Z,12.88
2023-05-21T15:55:04.579Z,12.65
2023-05-21T15:57:31.379Z,12.20
2023-05-21T15:59:58.139Z,16.60
2023-05-21T16:02:24.901Z,8.68
2023-05-21T16:04:51.975Z,17.08
2023-05-21T16:07:19.184Z,15.07
2023-05-21T16:09:45.968Z,20.20
2023-05-21T16:12:13.394Z,16.70
2023-05-21T16:14:40.159Z,13.50
2023-05-21T16:17:07.166Z,14.43
2023-05-21T16:19:34.006Z,15.57
2023-05-21T16:22:01.880Z,14.90
2023-05-21T16:24:28.670Z,12.20
2023-05-21T16:26:55.467Z,14.43
2023-05-21T16:29:22.327Z,18.05
2023-05-21T16:31:49.203Z,17.88
2023-05-21T16:34:16.123Z,13.70
2023-05-21T16:36:42.846Z,13.23
2023-05-21T16:39:09.606Z,14.02
2023-05-21T16:41:36.467Z,13.55
2023-05-21T16:44:03.307Z,13.07
2023-05-21T16:46:30.116Z,13.88
2023-05-21T16:48:56.904Z,14.18
2023-05-21T16:51:23.628Z,15.05
2023-05-21T16:53:50.413Z,16.52
2023-05-21T16:56:17.196Z,14.18
2023-05-21T16:58:44.202Z,15.68
2023-05-21T17:01:11.159Z,17.40
2023-05-21T17:03:38.607Z,10.20
2023-05-21T17:06:07.544Z,10.88
2023-05-21T17:08:34.291Z,12.30
2023-05-21T17:11:01.107Z,12.52
2023-05-21T17:13:27.841Z,11.98
2023-05-21T17:15:54.736Z,12.57
2023-05-21T17:18:21.537Z,12.70
2023-05-21T17:20:48.326Z,13.75
2023-05-21T17:23:15.222Z,13.02
2023-05-21T17:25:42.108Z,17.27
2023-05-21T17:28:09.020Z,11.18
2023-05-21T17:30:35.893Z,16.95
2023-05-21T17:33:03.799Z,12.13
2023-05-21T17:35:30.703Z,18.50
2023-05-21T17:37:57.491Z,15.75
2023-05-21T17:40:25.026Z,10.95
2023-05-21T17:42:52.629Z,12.52
2023-05-21T17:45:20.080Z,15.45
2023-05-21T17:47:46.999Z,14.82
2023-05-21T17:50:13.761Z,13.65
2023-05-21T17:52:40.619Z,12.55
2023-05-21T17:55:08.133Z,14.18
2023-05-21T17:57:38.119Z,15.30
2023-05-21T18:00:06.776Z,12.75
2023-05-21T18:02:33.631Z,18.13
2023-05-21T18:05:00.546Z,15.18
2023-05-21T18:07:27.353Z,11.98
2023-05-21T18:09:54.116Z,20.52
2023-05-21T18:12:21.356Z,13.90
2023-05-21T18:14:48.232Z,13.70
2023-05-21T18:17:15.008Z,11.70
2023-05-21T18:19:41.758Z,17.40
2023-05-21T18:22:08.646Z,18.65
2023-05-21T18:24:37.475Z,19.13
2023-05-21T18:27:04.364Z,15.50
2023-05-21T18:29:31.187Z,18.25
2023-05-21T18:31:58.036Z,19.60
2023-05-21T18:34:24.818Z,14.98
2023-05-21T18:36:54.441Z,15.07
2023-05-21T18:39:24.595Z,22.02
2023-05-21T18:41:55.806Z,20.40
2023-05-21T18:44:29.707Z,15.20
2023-05-21T18:46:57.782Z,14.70
2023-05-21T18:49:24.807Z,19.08
2023-05-21T18:51:51.653Z,17.05
2023-05-21T18:54:18.401Z,22.77
2023-05-21T18:56:45.138Z,20.85
2023-05-21T18:59:11.892Z,29.02
2023-05-21T19:01:38.678Z,20.83
2023-05-21T19:04:05.739Z,23.17
2023-05-21T19:06:32.462Z,17.90
2023-05-21T19:08:59.361Z,18.95
2023-05-21T19:11:31.050Z,18.40
2023-05-21T19:13:58.962Z,20.15
2023-05-21T19:16:25.882Z,21.25
2023-05-21T19:18:52.826Z,15.27
2023-05-21T19:21:19.799Z,21.05
2023-05-21T19:23:53.352Z,15.82
2023-05-21T19:26:22.420Z,19.50
2023-05-21T19:28:53.307Z,19.25
2023-05-21T19:31:22.069Z,15.43
2023-05-21T19:33:49.372Z,18.70
2023-05-21T19:36:16.368Z,22.00
2023-05-21T19:38:48.283Z,14.57
2023-05-21T19:41:16.405Z,20.92
2023-05-21T19:43:43.302Z,19.95
2023-05-21T19:46:10.304Z,20.35
2023-05-21T19:48:37.277Z,21.33
2023-05-21T19:51:04.907Z,20.85
2023-05-21T19:53:31.697Z,22.25
2023-05-21T19:55:58.513Z,20.15
2023-05-21T19:58:26.995Z,24.05
2023-05-21T20:00:59.171Z,24.13
2023-05-21T20:03:26.839Z,23.40
2023-05-21T20:05:54.236Z,22.80
2023-05-21T20:08:21.445Z,25.98
2023-05-21T20:10:51.428Z,21.80
2023-05-21T20:13:19.029Z,25.80
2023-05-21T20:15:47.819Z,25.02
2023-05-21T20:18:15.594Z,19.92
2023-05-21T20:20:42.880Z,24.55
2023-05-21T20:23:09.735Z,22.38
2023-05-21T20:25:36.578Z,18.88
2023-05-21T20:28:04.294Z,18.85
2023-05-21T20:30:35.921Z,25.95
2023-05-21T20:33:03.865Z,26.00
2023-05-21T20:35:30.819Z,21.00
2023-05-21T20:37:57.725Z,35.15
2023-05-21T20:40:24.770Z,22.92
2023-05-21T20:42:53.537Z,29.90
2023-05-21T20:45:21.080Z,23.13
2023-05-21T20:47:49.696Z,24.75
2023-05-21T20:50:17.702Z,27.02
2023-05-21T20:52:47.026Z,29.73
2023-05-21T20:55:14.615Z,26.45
2023-05-21T20:57:42.102Z,30.75
2023-05-21T21:00:11.527Z,31.42
2023-05-21T21:02:38.904Z,23.20
2023-05-21T21:05:06.316Z,29.90
2023-05-21T21:07:34.129Z,30.30
2023-05-21T21:10:01.416Z,31.92
2023-05-21T21:12:28.553Z,25.95
2023-05-21T21:14:56.076Z,27.30
2023-05-21T21:17:23.188Z,28.67
2023-05-21T21:19:50.076Z,24.30
2023-05-21T21:22:18.266Z,31.15
2023-05-21T21:24:45.569Z,31.20
2023-05-21T21:27:12.567Z,23.52
2023-05-21T21:29:39.378Z,37.55
2023-05-21T21:32:06.665Z,23.73
2023-05-21T21:34:33.461Z,27.15
2023-05-21T21:37:00.265Z,23.58
2023-05-21T21:39:27.150Z,28.35
2023-05-21T21:41:53.984Z,25.48
2023-05-21T21:44:20.765Z,29.98
2023-05-21T21:46:47.576Z,27.27
2023-05-21T21:49:16.693Z,33.08
2023-05-21T21:51:46.694Z,26.83
2023-05-21T21:54:13.467Z,29.27
2023-05-21T21:56:40.286Z,27.75
2023-05-21T21:59:07.018Z,30.63
2023-05-21T22:01:34.044Z,30.00
2023-05-21T22:04:00.968Z,26.90
2023-05-21T22:06:28.605Z,28.60
2023-05-21T22:08:55.511Z,30.25
2023-05-21T22:11:22.685Z,27.70
2023-05-21T22:13:49.502Z,36.45
2023-05-21T22:16:16.362Z,31.65
2023-05-21T22:18:43.194Z,32.50
2023-05-21T22:21:10.820Z,36.85
2023-05-21T22:23:38.376Z,29.92
2023-05-21T22:26:05.866Z,34.25
2023-05-21T22:28:32.827Z,36.83
2023-05-21T22:30:59.655Z,32.58
2023-05-21T22:33:26.804Z,28.77
2023-05-21T22:35:54.422Z,32.50
2023-05-21T22:38:21.535Z,32.60
2023-05-21T22:40:48.450Z,33.22
2023-05-21T22:43:15.283Z,34.03
2023-05-21T22:45:42.255Z,35.78
2023-05-21T22:48:09.724Z,25.15
2023-05-21T22:50:38.585Z,35.97
2023-05-21T22:53:06.436Z,30.10
2023-05-21T22:55:33.231Z,33.47
2023-05-21T22:58:00.039Z,36.58
2023-05-21T23:00:27.177Z,31.45
2023-05-21T23:02:54.794Z,31.70
2023-05-21T23:05:22.210Z,37.13
2023-05-21T23:07:49.654Z,29.67
2023-05-21T23:10:16.605Z,33.10
2023-05-21T23:12:43.398Z,29.67
2023-05-21T23:15:10.730Z,29.00
2023-05-21T23:17:38.447Z,31.10
2023-05-21T23:20:07.387Z,33.38
2023-05-21T23:22:34.823Z,32.35
2023-05-21T23:25:01.763Z,31.85
2023-05-21T23:27:29.267Z,37.17
2023-05-21T23:29:56.336Z,39.05
2023-05-21T23:32:23.564Z,34.80
2023-05-21T23:34:50.767Z,35.58
2023-05-21T23:37:17.606Z,43.40
2023-05-21T23:39:48.097Z,39.13
2023-05-21T23:42:15.704Z,32.72
2023-05-21T23:44:42.515Z,35.30
2023-05-21T23:47:09.728Z,36.13
2023-05-21T23:49:36.460Z,38.58
2023-05-21T23:52:03.588Z,38.70
2023-05-21T23:54:30.780Z,42.17
2023-05-21T23:56:57.551Z,40.00
2023-05-21T23:59:24.314Z,38.40
